createdAt,value
2023-04-08T00:01:21.188Z,5.47
2023-04-08T00:03:48.727Z,5.47
2023-04-08T00:06:16.327Z,5.50
2023-04-08T00:08:43.738Z,5.32
2023-04-08T00:11:10.992Z,4.88
2023-04-08T00:13:38.242Z,5.10
2023-04-08T00:16:05.774Z,5.53
2023-04-08T00:18:33.082Z,4.97
2023-04-08T00:21:01.059Z,5.35
2023-04-08T00:23:28.362Z,5.07
2023-04-08T00:25:55.781Z,4.72
2023-04-08T00:28:23.104Z,4.80
2023-04-08T00:30:51.767Z,4.78
2023-04-08T00:33:19.063Z,4.60
2023-04-08T00:35:46.405Z,4.90
2023-04-08T00:38:13.714Z,4.20
2023-04-08T00:40:40.980Z,4.55
2023-04-08T00:43:10.746Z,4.60
2023-04-08T00:45:38.069Z,4.35
2023-04-08T00:48:05.903Z,3.97
2023-04-08T00:50:33.162Z,3.60
2023-04-08T00:53:00.524Z,4.07
2023-04-08T00:55:27.803Z,4.10
2023-04-08T00:57:55.142Z,3.78
2023-04-08T01:00:22.519Z,4.18
2023-04-08T01:02:52.820Z,3.78
2023-04-08T01:05:39.067Z,3.53
2023-04-08T01:08:07.672Z,3.40
2023-04-08T01:10:35.982Z,4.03
2023-04-08T01:13:08.433Z,3.50
2023-04-08T01:15:37.539Z,3.90
2023-04-08T01:18:07.439Z,3.65
2023-04-08T01:20:35.390Z,3.65
2023-04-08T01:23:03.906Z,4.10
2023-04-08T01:25:32.648Z,4.03
2023-04-08T01:28:02.038Z,3.45
2023-04-08T01:30:31.032Z,3.40
2023-04-08T01:32:58.959Z,4.38
2023-04-08T01:35:26.459Z,3.55
2023-04-08T01:37:54.884Z,3.60
2023-04-08T01:40:22.139Z,3.42
2023-04-08T01:42:50.484Z,3.90
2023-04-08T01:45:18.167Z,3.42
2023-04-08T01:47:48.401Z,3.72
2023-04-08T01:50:16.672Z,3.90
2023-04-08T01:52:44.976Z,3.65
2023-04-08T01:55:12.324Z,3.58
2023-04-08T01:57:41.031Z,3.42
2023-04-08T02:00:13.260Z,3.33
2023-04-08T02:02:43.609Z,3.58
2023-04-08T02:05:10.977Z,3.72
2023-04-08T02:07:38.289Z,3.35
2023-04-08T02:10:05.852Z,3.47
2023-04-08T02:12:34.301Z,4.10
2023-04-08T02:15:01.684Z,4.30
2023-04-08T02:17:44.608Z,4.32
2023-04-08T02:20:16.884Z,4.47
2023-04-08T02:22:47.211Z,4.45
2023-04-08T02:25:15.750Z,3.30
2023-04-08T02:27:44.094Z,3.90
2023-04-08T02:30:12.424Z,3.92
2023-04-08T02:32:40.503Z,4.18
2023-04-08T02:35:08.524Z,3.70
2023-04-08T02:37:35.844Z,3.60
2023-04-08T02:40:03.213Z,3.63
2023-04-08T02:42:30.502Z,4.03
2023-04-08T02:44:58.089Z,4.05
2023-04-08T02:47:25.415Z,4.78
2023-04-08T02:49:53.681Z,4.50
2023-04-08T02:52:21.177Z,4.50
2023-04-08T02:54:48.458Z,4.70
2023-04-08T02:57:17.084Z,4.45
2023-04-08T02:59:44.372Z,4.07
2023-04-08T03:02:11.689Z,5.10
2023-04-08T03:04:38.973Z,5.40
2023-04-08T03:07:08.945Z,5.57
2023-04-08T03:09:36.184Z,5.47
2023-04-08T03:12:03.424Z,4.95
2023-04-08T03:14:30.956Z,4.90
2023-04-08T03:16:58.326Z,5.00
2023-04-08T03:19:33.262Z,4.88
2023-04-08T03:22:00.540Z,6.03
2023-04-08T03:24:27.772Z,6.43
2023-04-08T03:26:55.021Z,6.07
2023-04-08T03:29:22.324Z,5.60
2023-04-08T03:31:49.793Z,4.45
2023-04-08T03:34:17.084Z,4.22
2023-04-08T03:36:44.422Z,4.78
2023-04-08T03:39:11.679Z,4.82
2023-04-08T03:41:38.982Z,5.00
2023-04-08T03:44:06.322Z,4.80
2023-04-08T03:46:33.569Z,5.13
2023-04-08T03:49:00.910Z,4.90
2023-04-08T03:51:28.713Z,5.03
2023-04-08T03:53:55.985Z,4.75
2023-04-08T03:56:23.230Z,5.13
2023-04-08T03:58:50.661Z,4.63
2023-04-08T04:01:18.110Z,4.68
2023-04-08T04:03:45.609Z,4.80
2023-04-08T04:06:12.920Z,4.55
2023-04-08T04:08:40.317Z,4.88
2023-04-08T04:11:07.625Z,4.68
2023-04-08T04:13:34.912Z,5.93
2023-04-08T04:16:02.189Z,5.63
2023-04-08T04:18:29.588Z,5.28
2023-04-08T04:20:56.992Z,5.97
2023-04-08T04:23:25.905Z,7.10
2023-04-08T04:25:53.213Z,5.68
2023-04-08T04:28:20.434Z,6.00
2023-04-08T04:30:47.784Z,6.15
2023-04-08T04:33:15.076Z,6.10
2023-04-08T04:35:42.413Z,6.70
2023-04-08T04:38:12.657Z,5.78
2023-04-08T04:40:40.000Z,5.80
2023-04-08T04:43:07.307Z,5.45
2023-04-08T04:45:34.588Z,6.05
2023-04-08T04:48:02.362Z,6.07
2023-04-08T04:50:29.850Z,8.52
2023-04-08T04:52:57.273Z,11.35
2023-04-08T04:55:24.575Z,9.85
2023-04-08T04:57:51.862Z,9.07
2023-04-08T05:00:19.192Z,9.45
2023-04-08T05:02:47.136Z,10.18
2023-04-08T05:05:14.616Z,9.63
2023-04-08T05:07:41.854Z,9.75
2023-04-08T05:10:09.354Z,12.13
2023-04-08T05:12:38.781Z,12.80
2023-04-08T05:15:06.716Z,13.93
2023-04-08T05:17:34.039Z,15.93
2023-04-08T05:20:01.335Z,11.63
2023-04-08T05:22:28.612Z,9.63
2023-04-08T05:24:56.010Z,8.65
2023-04-08T05:27:23.248Z,9.25
2023-04-08T05:29:50.576Z,8.45
2023-04-08T05:32:17.890Z,9.25
2023-04-08T05:34:45.671Z,8.82
2023-04-08T05:37:13.002Z,8.38
2023-04-08T05:39:40.484Z,7.80
2023-04-08T05:42:07.754Z,7.72
2023-04-08T05:44:35.072Z,6.75
2023-04-08T05:47:02.567Z,7.15
2023-04-08T05:49:29.862Z,7.13
2023-04-08T05:51:57.101Z,6.35
2023-04-08T05:54:24.339Z,5.82
2023-04-08T05:56:51.562Z,5.53
2023-04-08T05:59:18.773Z,5.38
2023-04-08T06:01:46.264Z,5.78
2023-04-08T06:04:13.835Z,6.18
2023-04-08T06:06:43.748Z,6.32
2023-04-08T06:09:11.026Z,5.82
2023-04-08T06:11:38.300Z,6.25
2023-04-08T06:14:07.772Z,6.10
2023-04-08T06:16:35.190Z,6.05
2023-04-08T06:19:02.452Z,5.18
2023-04-08T06:21:29.682Z,5.32
2023-04-08T06:23:56.987Z,5.82
2023-04-08T06:26:24.556Z,5.60
2023-04-08T06:28:52.363Z,5.93
2023-04-08T06:31:19.794Z,5.70
2023-04-08T06:33:47.065Z,6.03
2023-04-08T06:36:14.398Z,5.40
2023-04-08T06:38:41.630Z,5.20
2023-04-08T06:41:09.110Z,4.70
2023-04-08T06:43:38.059Z,4.72
2023-04-08T06:46:05.624Z,4.40
2023-04-08T06:48:32.958Z,4.20
2023-04-08T06:51:03.712Z,4.40
2023-04-08T06:53:32.872Z,3.97
2023-04-08T06:56:00.516Z,4.10
2023-04-08T06:58:27.793Z,4.60
2023-04-08T07:00:58.223Z,4.35
2023-04-08T07:03:25.607Z,3.83
2023-04-08T07:05:53.363Z,4.47
2023-04-08T07:08:20.735Z,4.00
2023-04-08T07:10:48.355Z,4.55
2023-04-08T07:13:15.725Z,4.40
2023-04-08T07:15:43.076Z,4.07
2023-04-08T07:18:10.717Z,4.38
2023-04-08T07:20:38.593Z,4.65
2023-04-08T07:23:06.012Z,4.65
2023-04-08T07:25:35.258Z,4.28
2023-04-08T07:28:02.743Z,3.75
2023-04-08T07:30:30.140Z,4.05
2023-04-08T07:33:00.448Z,4.35
2023-04-08T07:35:28.199Z,4.18
2023-04-08T07:37:55.814Z,4.20
2023-04-08T07:40:23.128Z,4.15
2023-04-08T07:42:50.394Z,4.25
2023-04-08T07:45:17.726Z,3.72
2023-04-08T07:47:45.618Z,3.75
2023-04-08T07:50:12.951Z,3.50
2023-04-08T07:52:40.350Z,3.88
2023-04-08T07:55:07.802Z,4.25
2023-04-08T07:57:35.380Z,4.43
2023-04-08T08:00:03.763Z,4.40
2023-04-08T08:02:31.169Z,4.47
2023-04-08T08:04:58.510Z,4.63
2023-04-08T08:07:25.996Z,4.63
2023-04-08T08:09:53.246Z,4.85
2023-04-08T08:12:20.747Z,5.35
2023-04-08T08:14:48.012Z,5.53
2023-04-08T08:17:15.228Z,5.30
2023-04-08T08:19:42.485Z,4.57
2023-04-08T08:22:09.762Z,3.65
2023-04-08T08:24:38.071Z,3.50
2023-04-08T08:27:06.591Z,3.30
2023-04-08T08:29:33.922Z,3.08
2023-04-08T08:32:01.420Z,3.35
2023-04-08T08:34:28.717Z,3.00
2023-04-08T08:36:56.090Z,3.35
2023-04-08T08:39:23.350Z,3.60
2023-04-08T08:41:50.583Z,3.17
2023-04-08T08:44:17.879Z,3.28
2023-04-08T08:46:46.028Z,3.72
2023-04-08T08:49:13.386Z,3.47
2023-04-08T08:51:45.461Z,3.15
2023-04-08T08:54:13.019Z,3.22
2023-04-08T08:56:40.725Z,3.20
2023-04-08T08:59:08.072Z,3.47
2023-04-08T09:01:37.549Z,3.05
2023-04-08T09:04:22.638Z,3.85
2023-04-08T09:06:51.683Z,3.45
2023-04-08T09:09:19.019Z,3.05
2023-04-08T09:11:47.677Z,3.78
2023-04-08T09:14:21.898Z,3.70
2023-04-08T09:16:49.313Z,3.20
2023-04-08T09:19:16.629Z,3.10
2023-04-08T09:21:44.212Z,3.67
2023-04-08T09:24:27.764Z,2.88
2023-04-08T09:26:55.033Z,2.85
2023-04-08T09:29:26.291Z,3.25
2023-04-08T09:31:58.655Z,3.05
2023-04-08T09:34:27.425Z,2.75
2023-04-08T09:36:56.055Z,3.65
2023-04-08T09:39:23.995Z,3.17
2023-04-08T09:41:52.227Z,3.17
2023-04-08T09:44:21.195Z,3.30
2023-04-08T09:46:52.764Z,3.55
2023-04-08T09:49:27.058Z,3.13
2023-04-08T09:52:00.927Z,3.50
2023-04-08T09:54:33.014Z,2.80
2023-04-08T09:57:09.173Z,3.35
2023-04-08T09:59:38.770Z,3.28
2023-04-08T10:02:08.215Z,3.40
2023-04-08T10:04:37.336Z,3.45
2023-04-08T10:07:05.564Z,3.67
2023-04-08T10:09:32.870Z,3.67
2023-04-08T10:12:00.543Z,4.78
2023-04-08T10:14:28.855Z,5.93
2023-04-08T10:17:23.252Z,6.15
2023-04-08T10:19:50.533Z,7.43
2023-04-08T10:22:30.114Z,7.22
2023-04-08T10:25:17.588Z,7.05
2023-04-08T10:27:45.570Z,6.57
2023-04-08T10:30:25.219Z,6.70
2023-04-08T10:32:52.615Z,6.35
2023-04-08T10:35:30.526Z,6.47
2023-04-08T10:38:01.229Z,6.07
2023-04-08T10:40:28.724Z,5.97
2023-04-08T10:42:56.656Z,6.40
2023-04-08T10:45:24.191Z,6.10
2023-04-08T10:47:51.592Z,5.68
2023-04-08T10:50:20.151Z,5.80
2023-04-08T10:52:50.950Z,5.57
2023-04-08T10:57:46.303Z,5.13
2023-04-08T11:00:18.588Z,4.95
2023-04-08T11:02:46.207Z,5.53
2023-04-08T11:05:13.623Z,5.47
2023-04-08T11:07:42.128Z,5.75
2023-04-08T11:10:09.974Z,6.15
2023-04-08T11:12:38.777Z,5.68
2023-04-08T11:15:06.430Z,5.30
2023-04-08T11:17:35.544Z,5.35
2023-04-08T11:20:06.386Z,5.78
2023-04-08T11:22:34.703Z,5.63
2023-04-08T11:25:02.085Z,5.93
2023-04-08T11:27:29.513Z,5.35
2023-04-08T11:29:57.416Z,5.70
2023-04-08T11:32:25.166Z,5.32
2023-04-08T11:34:54.022Z,5.35
2023-04-08T11:37:22.435Z,5.43
2023-04-08T11:39:49.706Z,6.07
2023-04-08T11:42:37.259Z,6.25
2023-04-08T11:45:12.001Z,6.20
2023-04-08T11:47:39.410Z,5.50
2023-04-08T11:50:07.196Z,5.00
2023-04-08T11:52:47.785Z,4.45
2023-04-08T11:55:25.640Z,4.60
2023-04-08T11:57:53.558Z,4.32
2023-04-08T12:00:21.294Z,4.15
2023-04-08T12:02:49.046Z,4.07
2023-04-08T12:05:18.264Z,4.10
2023-04-08T12:07:45.973Z,4.00
2023-04-08T12:10:13.487Z,3.92
2023-04-08T12:12:41.265Z,3.60
2023-04-08T12:15:08.834Z,4.00
2023-04-08T12:17:39.091Z,4.18
2023-04-08T12:20:06.971Z,4.07
2023-04-08T12:22:34.420Z,3.78
2023-04-08T12:25:03.560Z,3.50
2023-04-08T12:27:35.287Z,3.10
2023-04-08T12:30:03.561Z,3.28
2023-04-08T12:32:30.998Z,3.05
2023-04-08T12:34:58.331Z,2.80
2023-04-08T12:37:25.636Z,3.10
2023-04-08T12:39:52.896Z,2.95
2023-04-08T12:42:20.196Z,2.80
2023-04-08T12:44:47.461Z,2.85
2023-04-08T12:47:14.973Z,2.58
2023-04-08T12:49:49.370Z,2.80
2023-04-08T12:52:17.798Z,3.33
2023-04-08T12:54:45.608Z,3.00
2023-04-08T12:57:12.968Z,2.80
2023-04-08T12:59:40.301Z,2.65
2023-04-08T13:02:08.295Z,2.70
2023-04-08T13:04:35.750Z,2.80
2023-04-08T13:07:04.519Z,2.55
2023-04-08T13:09:32.896Z,2.60
2023-04-08T13:12:00.131Z,2.20
2023-04-08T13:14:27.567Z,2.90
2023-04-08T13:16:54.885Z,2.67
2023-04-08T13:19:22.136Z,3.00
2023-04-08T13:21:49.396Z,2.70
2023-04-08T13:24:16.830Z,2.92
2023-04-08T13:26:44.189Z,2.72
2023-04-08T13:29:11.460Z,2.78
2023-04-08T13:31:38.749Z,3.20
2023-04-08T13:34:06.452Z,2.70
2023-04-08T13:36:33.726Z,2.50
2023-04-08T13:39:01.468Z,2.67
2023-04-08T13:41:28.981Z,2.72
2023-04-08T13:43:56.943Z,2.90
2023-04-08T13:46:24.425Z,2.40
2023-04-08T13:48:52.072Z,2.33
2023-04-08T13:51:19.634Z,2.28
2023-04-08T13:53:47.089Z,2.38
2023-04-08T13:56:14.314Z,2.40
2023-04-08T13:58:41.749Z,2.70
2023-04-08T14:01:09.031Z,2.60
2023-04-08T14:03:36.666Z,2.95
2023-04-08T14:06:03.983Z,2.40
2023-04-08T14:08:31.479Z,3.00
2023-04-08T14:10:59.305Z,3.05
2023-04-08T14:13:26.609Z,2.60
2023-04-08T14:15:55.102Z,3.13
2023-04-08T14:18:22.379Z,3.40
2023-04-08T14:20:49.636Z,3.13
2023-04-08T14:23:17.194Z,3.10
2023-04-08T14:25:44.452Z,2.83
2023-04-08T14:28:12.356Z,2.95
2023-04-08T14:30:39.701Z,2.92
2023-04-08T14:33:07.087Z,2.30
2023-04-08T14:35:34.704Z,10.07
2023-04-08T14:38:01.989Z,2.30
2023-04-08T14:40:29.231Z,2.38
2023-04-08T14:42:56.570Z,2.30
2023-04-08T14:45:23.921Z,2.20
2023-04-08T14:47:51.209Z,2.50
2023-04-08T14:50:19.504Z,2.20
2023-04-08T14:52:48.664Z,2.13
2023-04-08T14:55:16.003Z,2.45
2023-04-08T14:57:43.260Z,2.20
2023-04-08T15:00:10.852Z,1.80
2023-04-08T15:02:38.235Z,1.70
2023-04-08T15:05:05.700Z,1.85
2023-04-08T15:07:32.940Z,1.70
2023-04-08T15:10:00.619Z,1.70
2023-04-08T15:12:29.178Z,1.75
2023-04-08T15:14:56.442Z,1.70
2023-04-08T15:17:23.797Z,1.77
2023-04-08T15:19:51.118Z,1.90
2023-04-08T15:22:18.449Z,2.13
2023-04-08T15:24:47.553Z,1.90
2023-04-08T15:27:16.017Z,2.38
2023-04-08T15:29:43.340Z,2.13
2023-04-08T15:32:10.983Z,2.00
2023-04-08T15:34:38.252Z,1.95
2023-04-08T15:37:06.473Z,1.92
2023-04-08T15:39:33.713Z,2.10
2023-04-08T15:42:01.613Z,2.17
2023-04-08T15:44:32.279Z,2.47
2023-04-08T15:46:59.566Z,2.65
2023-04-08T15:49:26.907Z,2.20
2023-04-08T15:51:54.279Z,2.50
2023-04-08T15:54:21.765Z,2.55
2023-04-08T15:56:49.082Z,2.58
2023-04-08T15:59:16.473Z,3.30
2023-04-08T16:01:43.762Z,2.35
2023-04-08T16:04:11.590Z,2.38
2023-04-08T16:06:39.030Z,2.05
2023-04-08T16:09:06.615Z,2.50
2023-04-08T16:11:34.777Z,2.55
2023-04-08T16:14:02.117Z,2.10
2023-04-08T16:16:29.628Z,2.08
2023-04-08T16:18:56.932Z,1.85
2023-04-08T16:21:24.253Z,2.00
2023-04-08T16:23:51.899Z,2.28
2023-04-08T16:26:19.877Z,2.10
2023-04-08T16:28:47.299Z,2.17
2023-04-08T16:31:14.732Z,2.20
2023-04-08T16:33:42.036Z,2.10
2023-04-08T16:36:09.444Z,2.38
2023-04-08T16:38:36.759Z,2.25
2023-04-08T16:41:06.390Z,2.00
2023-04-08T16:43:33.708Z,2.00
2023-04-08T16:46:01.042Z,1.85
2023-04-08T16:48:28.316Z,1.58
2023-04-08T16:50:55.596Z,2.00
2023-04-08T16:53:22.894Z,1.85
2023-04-08T16:55:50.117Z,1.85
2023-04-08T16:58:17.512Z,1.98
2023-04-08T17:00:44.776Z,2.10
2023-04-08T17:03:12.358Z,1.88
2023-04-08T17:05:40.354Z,2.33
2023-04-08T17:08:07.880Z,2.17
2023-04-08T17:10:35.234Z,2.50
2023-04-08T17:13:05.251Z,2.70
2023-04-08T17:15:32.642Z,2.35
2023-04-08T17:18:00.168Z,2.50
2023-04-08T17:20:27.849Z,2.50
2023-04-08T17:22:55.102Z,2.50
2023-04-08T17:25:22.450Z,2.90
2023-04-08T17:27:49.733Z,3.42
2023-04-08T17:30:17.004Z,3.38
2023-04-08T17:32:44.400Z,3.03
2023-04-08T17:35:11.712Z,3.17
2023-04-08T17:37:38.938Z,2.70
2023-04-08T17:40:07.068Z,2.35
2023-04-08T17:42:34.501Z,3.30
2023-04-08T17:45:02.737Z,3.05
2023-04-08T17:47:30.064Z,3.05
2023-04-08T17:49:57.567Z,3.65
2023-04-08T17:52:24.831Z,3.40
2023-04-08T17:54:52.127Z,3.70
2023-04-08T17:57:19.783Z,4.35
2023-04-08T17:59:47.159Z,3.95
2023-04-08T18:02:14.423Z,4.22
2023-04-08T18:04:42.478Z,3.72
2023-04-08T18:07:09.800Z,3.45
2023-04-08T18:09:37.061Z,3.28
2023-04-08T18:12:04.360Z,3.63
2023-04-08T18:14:31.703Z,3.30
2023-04-08T18:16:59.046Z,3.60
2023-04-08T18:19:26.697Z,3.28
2023-04-08T18:21:55.200Z,3.28
2023-04-08T18:24:22.533Z,3.65
2023-04-08T18:27:01.460Z,3.53
2023-04-08T18:29:31.485Z,3.92
2023-04-08T18:31:58.725Z,2.80
2023-04-08T18:34:26.787Z,2.90
2023-04-08T18:36:54.094Z,2.97
2023-04-08T18:39:21.552Z,3.00
2023-04-08T18:41:48.791Z,2.92
2023-04-08T18:44:16.632Z,2.80
2023-04-08T18:46:45.788Z,2.78
2023-04-08T18:49:13.080Z,2.53
2023-04-08T18:51:42.167Z,2.60
2023-04-08T18:54:13.712Z,2.45
2023-04-08T18:56:41.200Z,2.35
2023-04-08T18:59:08.841Z,2.55
2023-04-08T19:01:36.481Z,2.30
2023-04-08T19:04:03.845Z,2.30
2023-04-08T19:06:33.756Z,2.55
2023-04-08T19:09:01.137Z,2.50
2023-04-08T19:11:29.177Z,2.08
2023-04-08T19:13:56.919Z,2.88
2023-04-08T19:16:24.360Z,2.47
2023-04-08T19:18:52.828Z,2.13
2023-04-08T19:21:20.508Z,2.22
2023-04-08T19:23:49.222Z,2.47
2023-04-08T19:26:17.429Z,2.40
2023-04-08T19:28:44.737Z,2.25
2023-04-08T19:31:16.125Z,2.55
2023-04-08T19:33:43.397Z,2.58
2023-04-08T19:36:11.529Z,3.22
2023-04-08T19:38:39.222Z,3.55
2023-04-08T19:41:06.534Z,3.70
2023-04-08T19:43:33.837Z,3.97
2023-04-08T19:46:01.172Z,4.35
2023-04-08T19:48:28.408Z,4.18
2023-04-08T19:50:55.746Z,4.43
2023-04-08T19:53:23.039Z,4.43
2023-04-08T19:55:50.311Z,3.85
2023-04-08T19:58:18.483Z,4.57
2023-04-08T20:00:45.749Z,3.50
2023-04-08T20:03:13.980Z,3.15
2023-04-08T20:05:41.757Z,3.20
2023-04-08T20:08:09.189Z,2.63
2023-04-08T20:10:36.490Z,2.65
2023-04-08T20:13:03.764Z,2.40
2023-04-08T20:15:31.088Z,2.55
2023-04-08T20:17:58.378Z,1.70
2023-04-08T20:20:26.289Z,2.00
2023-04-08T20:22:54.913Z,2.10
2023-04-08T20:25:22.748Z,1.85
2023-04-08T20:27:50.100Z,2.00
2023-04-08T20:30:17.406Z,2.35
2023-04-08T20:32:44.670Z,2.22
2023-04-08T20:35:12.006Z,2.03
2023-04-08T20:37:39.303Z,2.55
2023-04-08T20:40:07.000Z,2.38
2023-04-08T20:42:34.268Z,2.33
2023-04-08T20:45:01.553Z,2.03
2023-04-08T20:47:28.867Z,2.15
2023-04-08T20:49:56.143Z,2.30
2023-04-08T20:52:23.486Z,2.72
2023-04-08T20:54:51.184Z,2.78
2023-04-08T20:57:18.567Z,2.60
2023-04-08T20:59:45.847Z,2.90
2023-04-08T21:02:13.336Z,2.50
2023-04-08T21:04:40.808Z,2.83
2023-04-08T21:07:08.135Z,2.95
2023-04-08T21:09:35.481Z,2.40
2023-04-08T21:12:03.091Z,2.60
2023-04-08T21:14:32.064Z,3.15
2023-04-08T21:16:59.321Z,3.45
2023-04-08T21:19:26.605Z,3.80
2023-04-08T21:21:53.883Z,4.00
2023-04-08T21:24:21.390Z,4.15
2023-04-08T21:26:48.668Z,4.43
2023-04-08T21:29:16.294Z,3.70
2023-04-08T21:31:43.622Z,3.15
2023-04-08T21:34:11.431Z,3.22
2023-04-08T21:36:39.611Z,3.40
2023-04-08T21:39:07.064Z,3.10
2023-04-08T21:41:34.359Z,3.13
2023-04-08T21:44:01.747Z,3.20
2023-04-08T21:46:31.322Z,3.08
2023-04-08T21:48:58.597Z,3.42
2023-04-08T21:51:26.470Z,4.05
2023-04-08T21:53:53.910Z,3.40
2023-04-08T21:56:22.257Z,3.90
2023-04-08T21:58:49.728Z,4.05
2023-04-08T22:01:17.335Z,4.05
2023-04-08T22:03:44.885Z,4.70
2023-04-08T22:06:19.157Z,4.20
2023-04-08T22:08:53.285Z,4.35
2023-04-08T22:11:20.760Z,4.30
2023-04-08T22:13:48.043Z,3.88
2023-04-08T22:16:15.524Z,4.47
2023-04-08T22:18:42.815Z,4.35
2023-04-08T22:21:10.067Z,4.72
2023-04-08T22:23:37.305Z,5.13
2023-04-08T22:26:04.926Z,5.18
2023-04-08T22:28:34.306Z,5.32
2023-04-08T22:31:01.705Z,5.38
2023-04-08T22:33:29.102Z,5.18
2023-04-08T22:35:57.910Z,5.45
2023-04-08T22:38:27.700Z,6.30
2023-04-08T22:40:54.989Z,5.50
2023-04-08T22:43:22.411Z,5.15
2023-04-08T22:45:49.690Z,5.50
2023-04-08T22:48:16.965Z,5.82
2023-04-08T22:50:44.217Z,6.50
2023-04-08T22:53:11.943Z,5.53
2023-04-08T22:55:39.229Z,6.18
2023-04-08T22:58:06.453Z,5.97
2023-04-08T23:00:33.677Z,5.80
2023-04-08T23:03:04.849Z,5.40
2023-04-08T23:05:32.325Z,5.60
2023-04-08T23:07:59.604Z,4.78
2023-04-08T23:10:26.901Z,5.13
2023-04-08T23:12:54.197Z,5.07
2023-04-08T23:15:21.708Z,5.15
2023-04-08T23:17:49.020Z,5.47
2023-04-08T23:20:16.362Z,5.50
2023-04-08T23:22:43.594Z,5.63
2023-04-08T23:25:11.006Z,5.75
2023-04-08T23:27:38.284Z,5.78
2023-04-08T23:30:06.038Z,6.70
2023-04-08T23:32:33.831Z,6.10
2023-04-08T23:35:01.511Z,6.53
2023-04-08T23:37:29.500Z,6.55
2023-04-08T23:39:56.766Z,6.10
2023-04-08T23:42:27.210Z,6.18
2023-04-08T23:44:55.027Z,6.68
2023-04-08T23:47:22.480Z,7.15
2023-04-08T23:49:49.750Z,6.68
2023-04-08T23:52:17.098Z,6.85
2023-04-08T23:54:44.349Z,7.75
2023-04-08T23:57:11.682Z,6.85
2023-04-08T23:59:38.969Z,8.02
